WETTERDATEN

GESTERN
Time Temp. Taup. r.Fe. Druck
00:02 -5.2 -9 72 919.3
00:12 -5.2 -8.8 73 919.2
00:23 -5.2 -8.8 73 919.1
00:32 -5.3 -9.1 72 919.2
00:42 -5.2 -8.8 73 919.1
00:53 -5.2 -8.8 73 919
01:03 -5.2 -8.8 73 918.9
01:13 -5.3 -8.9 73 918.8
01:23 -5.3 -9.1 72 918.7
01:33 -5.5 -9.1 73 918.4
01:43 -5.4 -9 73 918.4
01:53 -5.3 -8.9 73 918.4
02:04 -5.4 -9.2 72 918.3
02:14 -5.6 -9.2 73 918.3
02:23 -5.8 -9.4 73 918.3
02:33 -5.8 -9.3 74 918.4
02:44 -6.1 -9.5 74 918.4
02:54 -6 -9.5 74 918.5
03:04 -6.2 -9.6 74 918.5
03:24 -6.4 -9.8 74 918.4
03:34 -6.3 -9.6 75 918.3
03:44 -6.3 -9.7 74 918.3
03:55 -6.3 -9.6 75 918.2
04:04 -6.5 -9.8 75 918.2
04:14 -6.6 -10 74 918.2
04:25 -6.9 -10.3 74 918.1
04:35 -6.9 -10.2 75 918
04:45 -7.1 -10.5 74 917.9
04:54 -7 -10.3 75 917.8
05:05 -7.1 -10.4 75 917.7
05:15 -7.2 -10.6 74 917.7
05:25 -7.2 -10.5 75 917.7
05:35 -7.3 -10.7 74 917.7
05:45 -7.4 -10.7 75 917.7
05:55 -7.5 -10.9 74 917.6
06:05 -7.5 -10.8 75 917.5
06:16 -7.6 -10.9 75 917.5
06:26 -7.8 -11.1 75 917.3
06:35 -7.8 -11.1 75 917.3
06:46 -7.9 -11.2 75 917.3
06:56 -7.8 -10.9 76 917.3
07:06 -7.6 -10.7 76 917.3
07:16 -7.7 -11 75 917.3
07:26 -7.7 -11.1 74 917.3
07:36 -7.7 -11 75 917.3
07:46 -7.6 -10.9 75 917.3
07:56 -7.6 -11 74 917.3
08:07 -7.8 -11.2 74 917.3
08:16 -8.1 -11.5 74 917.5
08:26 -7.9 -11.2 75 917.3
08:37 -7.8 -11.1 75 917.3
08:47 -7.7 -11.1 74 917.3
08:57 -7.9 -11.2 75 917.3
09:07 -7.7 -11 75 917.5
09:17 -7.7 -11 75 917.5
09:27 -7.8 -11.2 74 917.5
09:37 -7.8 -11.1 75 917.5
09:48 -7.8 -11.1 75 917.5
09:57 -7.6 -10.9 75 917.6
10:07 -7.5 -10.8 75 917.6
10:17 -7.4 -10.7 75 917.6
10:28 -7.3 -10.7 74 917.6
10:38 -7.2 -10.6 74 917.5
10:47 -7.2 -10.6 74 917.5
10:58 -7.1 -10.5 74 917.5
11:08 -7 -10.3 75 917.3
11:18 -6.6 -9.9 75 917.2
11:28 -6.3 -9.4 76 917.1
11:39 -5.4 -8.1 79 917.1
11:48 -3.9 -6.5 80 916.9
11:58 -2.4 -5.6 76 916.8
12:09 -1 -4.4 75 916.7
12:19 0.2 -3.9 71 916.7
12:29 1.1 -3.7 68 916.6
12:38 1.8 -3.4 66 916.6
12:49 2.5 -3 65 916.5
12:59 3.1 -2.9 63 916.5
13:09 3.7 -2.8 61 916.3
13:19 4.1 -2.6 60 916.1
13:29 4.7 -2.3 59 915.9
13:39 5.1 -2.2 58 916
13:49 5.5 -2.3 56 916
14:00 5.8 -2.2 55 915.9
14:10 5.8 -2.5 54 915.8
14:19 5.7 -2.5 54 915.8
14:29 5 -2.9 55 915.7
14:40 4.6 -2.8 57 915.7
14:50 4.5 -2.9 57 915.7
15:00 4.4 -2.8 58 915.7
15:10 4.3 -2.7 59 915.7
15:20 4 -2.9 59 915.8
15:30 3.7 -3 60 915.9
15:40 3.6 -2.6 62 916
15:51 3.2 -2.8 63 916.1
15:58 2.9 -3 63 916.1
16:08 2.5 -3.2 64 916.1
16:18 2.1 -3.5 64 916
16:28 1.6 -3.6 66 915.8
16:39 1.3 -3.7 67 915.9
16:49 1 -3.7 68 916
16:58 0.6 -3.9 69 916
17:08 0.3 -4 70 915.9
17:19 0.1 -4.2 70 916
17:29 -0.2 -4.3 71 916
17:39 -0.4 -4.3 72 915.9
17:49 -0.4 -4.2 73 915.9
17:59 -0.4 -4 74 916
18:09 -0.4 -4 74 916
18:19 -0.5 -4.1 74 915.9
18:30 -0.6 -4.2 74 916.1
18:40 -0.6 -4 75 916
18:49 -0.7 -4.1 75 915.9
19:00 -0.8 -4.2 75 915.8
19:10 -0.8 -4.1 76 915.7
19:20 -0.8 -4.1 76 915.8
19:30 -1 -4.3 76 915.9
19:40 -1 -4.3 76 916
19:50 -0.9 -4 77 916
20:00 -0.9 -4.2 76 915.8
20:10 -1 -4.1 77 915.7
20:21 -1.2 -4.3 77 915.7
20:30 -1.2 -4.2 78 915.6
20:40 -1.1 -4.1 78 915.6
20:51 -1.1 -4.1 78 915.7
21:01 -1.2 -4 79 915.6
21:11 -1.1 -3.9 79 915.7
21:21 -1 -3.8 79 915.6
21:31 -1 -3.8 79 915.7
21:41 -1 -3.8 79 915.8
21:51 -1.1 -3.9 79 915.8
22:02 -1 -3.8 79 915.9
22:11 -1 -3.7 80 916
22:22 -1 -3.7 80 916.1
22:32 -1 -3.8 79 916
22:41 -1.1 -3.8 80 916
22:51 -1.2 -3.9 80 915.9
23:02 -1.3 -3.8 81 915.8
23:12 -1.4 -3.8 82 915.8
23:22 -1.3 -3.5 83 915.7
23:32 -1.2 -3.4 83 915.7
23:42 -1.2 -3.6 82 915.6
23:52 -1.2 -3.4 83 915.6

TAGESSTATISTIK

2022-12-08
TEMPERATUR
MITTEL
-2.9
MAXIMUM
5.8
14:00
MINIMUM
-8.1
08:16
LUFTDRUCK
MITTEL
916.9
MAXIMUM
919.3
00:02
MINIMUM
915.6
20:30
TAUPUNKT
MITTEL
-6.8
MAXIMUM
-2.2
13:39
MINIMUM
-11.5
08:16
FEUCHTIGKEIT
MITTEL
73
MAXIMUM
83
23:22
MINIMUM
54
14:10
TEMPERATUR (°C)
MINIMUM
-8.1
MAXIMUM
5.8
MITTEL
-2.9
LUFTDRUCK (hpa)
MINIMUM
915.6
MAXIMUM
919.3
MITTEL
916.9
MESSGERÄT